Wetterdaten: Woche 13.06.05 - 19.06.05 (KW24)
Datum Zeit Temperatur Luftfeuchte Luftdruck Niederschlag Windrichtung Wind
13.06.2005 00:00 12,8 C 83 % 1009 hPa 0,0 l/m N 0,2 km/h (0 Bft)
13.06.2005 01:00 12,2 C 86 % 1009 hPa 0,0 l/m S-SW 0,7 km/h (0 Bft)
13.06.2005 02:00 11,8 C 89 % 1008 hPa 0,0 l/m N 0,0 km/h (0 Bft)
13.06.2005 03:00 12,2 C 95 % 1008 hPa 0,0 l/m S-SW 2,1 km/h (1 Bft)
13.06.2005 04:00 12,2 C 97 % 1008 hPa 0,0 l/m S 11,0 km/h (2 Bft)
13.06.2005 05:00 12,3 C 97 % 1008 hPa 0,0 l/m S 10,2 km/h (2 Bft)
13.06.2005 06:00 12,9 C 96 % 1008 hPa 0,0 l/m S-SW 10,9 km/h (2 Bft)
13.06.2005 07:00 14,1 C 93 % 1008 hPa 0,0 l/m S-SW 12,9 km/h (3 Bft)
13.06.2005 08:00 14,8 C 91 % 1008 hPa 1,0 l/m S 10,7 km/h (2 Bft)
13.06.2005 09:00 14,8 C 94 % 1008 hPa 0,0 l/m S-SW 12,6 km/h (3 Bft)
13.06.2005 10:00 17,3 C 83 % 1009 hPa 0,0 l/m SW 14,6 km/h (3 Bft)
13.06.2005 11:00 20,0 C 66 % 1009 hPa 0,0 l/m W-SW 17,2 km/h (3 Bft)
13.06.2005 12:00 20,7 C 59 % 1010 hPa 0,0 l/m W-SW 27,7 km/h (4 Bft)
13.06.2005 13:00 17,7 C 68 % 1010 hPa 0,0 l/m W-SW 21,8 km/h (4 Bft)
13.06.2005 14:00 18,7 C 64 % 1011 hPa 0,0 l/m SW 18,0 km/h (3 Bft)
13.06.2005 15:00 19,7 C 58 % 1010 hPa 0,0 l/m SW 7,6 km/h (2 Bft)
13.06.2005 16:00 21,5 C 51 % 1010 hPa 0,0 l/m SW 4,5 km/h (1 Bft)
13.06.2005 17:00 22,6 C 47 % 1010 hPa 0,0 l/m W-SW 16,3 km/h (3 Bft)
13.06.2005 18:00 22,9 C 47 % 1010 hPa 0,0 l/m S-SW 15,5 km/h (3 Bft)
13.06.2005 19:00 21,5 C 52 % 1010 hPa 0,0 l/m S-SW 9,8 km/h (2 Bft)
13.06.2005 20:00 20,3 C 60 % 1010 hPa 0,0 l/m N 0,0 km/h (0 Bft)
13.06.2005 21:00 18,6 C 69 % 1010 hPa 0,0 l/m S 0,1 km/h (0 Bft)
13.06.2005 22:00 17,5 C 68 % 1012 hPa 0,0 l/m S 15,7 km/h (3 Bft)
13.06.2005 23:00 16,2 C 65 % 1012 hPa 0,0 l/m S-SW 17,8 km/h (3 Bft)
14.06.2005 00:00 15,6 C 75 % 1012 hPa 0,0 l/m W-SW 8,8 km/h (2 Bft)
14.06.2005 01:00 14,6 C 84 % 1012 hPa 0,0 l/m N 0,1 km/h (0 Bft)
14.06.2005 02:00 13,7 C 89 % 1012 hPa 0,0 l/m O-SO 1,1 km/h (0 Bft)
14.06.2005 03:00 12,8 C 91 % 1011 hPa 0,0 l/m N 0,0 km/h (0 Bft)
14.06.2005 04:00 12,0 C 94 % 1011 hPa 0,0 l/m N 0,0 km/h (0 Bft)
14.06.2005 05:00 11,8 C 96 % 1011 hPa 0,0 l/m N 0,0 km/h (0 Bft)
14.06.2005 06:00 12,5 C 98 % 1012 hPa 0,0 l/m N 0,0 km/h (0 Bft)
14.06.2005 07:00 13,6 C 99 % 1012 hPa 0,0 l/m N 0,0 km/h (0 Bft)
14.06.2005 08:00 14,2 C 98 % 1012 hPa 0,0 l/m N 0,0 km/h (0 Bft)
14.06.2005 09:00 15,0 C 94 % 1013 hPa 1,0 l/m N 0,0 km/h (0 Bft)
14.06.2005 10:00 15,8 C 91 % 1013 hPa 0,0 l/m N 0,0 km/h (0 Bft)
14.06.2005 11:00 16,6 C 86 % 1013 hPa 0,0 l/m N 4,6 km/h (1 Bft)
14.06.2005 12:00 17,1 C 83 % 1012 hPa 0,0 l/m N-NO 10,5 km/h (2 Bft)
14.06.2005 13:00 18,1 C 78 % 1012 hPa 0,0 l/m NW 9,6 km/h (2 Bft)
14.06.2005 14:00 19,5 C 68 % 1013 hPa 0,0 l/m N 13,2 km/h (3 Bft)
14.06.2005 15:00 20,3 C 64 % 1012 hPa 0,0 l/m N-NW 14,3 km/h (3 Bft)
14.06.2005 16:00 20,4 C 64 % 1013 hPa 0,0 l/m N 12,9 km/h (3 Bft)
14.06.2005 17:00 20,7 C 63 % 1013 hPa 0,0 l/m N 14,1 km/h (3 Bft)
14.06.2005 18:00 20,6 C 66 % 1013 hPa 0,0 l/m O-NO 12,2 km/h (2 Bft)
14.06.2005 19:00 17,7 C 82 % 1014 hPa 21,0 l/m N 9,1 km/h (2 Bft)
14.06.2005 20:00 14,9 C 94 % 1015 hPa 11,0 l/m W 13,9 km/h (3 Bft)
14.06.2005 21:00 14,5 C 98 % 1016 hPa 3,0 l/m W 2,5 km/h (1 Bft)
14.06.2005 22:00 14,5 C 99 % 1016 hPa 3,0 l/m W-SW 1,1 km/h (0 Bft)
14.06.2005 23:00 14,4 C 99 % 1017 hPa 2,0 l/m W-SW 0,3 km/h (0 Bft)
15.06.2005 00:00 14,3 C 100 % 1017 hPa 3,0 l/m W-SW 11,1 km/h (2 Bft)
15.06.2005 01:00 13,9 C 100 % 1017 hPa 2,0 l/m W 4,3 km/h (1 Bft)
15.06.2005 02:00 13,8 C 100 % 1018 hPa 0,0 l/m N 0,0 km/h (0 Bft)
15.06.2005 03:00 13,8 C 100 % 1018 hPa 2,0 l/m N 0,0 km/h (0 Bft)
15.06.2005 04:00 13,8 C 100 % 1018 hPa 0,0 l/m N 0,0 km/h (0 Bft)
15.06.2005 05:00 13,8 C 100 % 1018 hPa 1,0 l/m N 0,0 km/h (0 Bft)
15.06.2005 06:00 13,9 C 100 % 1019 hPa 0,0 l/m NW 2,3 km/h (1 Bft)
15.06.2005 07:00 14,3 C 100 % 1019 hPa 0,0 l/m N 6,4 km/h (2 Bft)
15.06.2005 08:00 14,4 C 99 % 1020 hPa 0,0 l/m N-NW 9,6 km/h (2 Bft)
15.06.2005 09:00 15,1 C 93 % 1020 hPa 0,0 l/m N-NW 9,8 km/h (2 Bft)
15.06.2005 10:00 16,0 C 84 % 1020 hPa 0,0 l/m N-NO 6,1 km/h (2 Bft)
15.06.2005 11:00 17,9 C 77 % 1020 hPa 0,0 l/m W 5,1 km/h (1 Bft)
15.06.2005 12:00 19,4 C 66 % 1020 hPa 0,0 l/m N-NO 2,9 km/h (1 Bft)
15.06.2005 13:00 20,6 C 58 % 1020 hPa 0,0 l/m W 6,8 km/h (2 Bft)
15.06.2005 14:00 21,6 C 51 % 1020 hPa 0,0 l/m W 11,6 km/h (2 Bft)
15.06.2005 15:00 22,6 C 44 % 1020 hPa 0,0 l/m W 11,9 km/h (2 Bft)
15.06.2005 16:00 23,5 C 41 % 1020 hPa 0,0 l/m W-SW 4,6 km/h (1 Bft)
15.06.2005 17:00 23,7 C 40 % 1019 hPa 0,0 l/m W 5,1 km/h (1 Bft)
15.06.2005 18:00 21,5 C 52 % 1019 hPa 0,0 l/m N 0,3 km/h (0 Bft)
15.06.2005 19:00 20,6 C 60 % 1020 hPa 0,0 l/m W-SW 6,2 km/h (2 Bft)
15.06.2005 20:00 19,1 C 68 % 1020 hPa 0,0 l/m S-SW 7,3 km/h (2 Bft)
15.06.2005 21:00 17,5 C 73 % 1021 hPa 0,0 l/m N 0,0 km/h (0 Bft)
15.06.2005 22:00 15,9 C 78 % 1021 hPa 0,0 l/m N 0,0 km/h (0 Bft)
15.06.2005 23:00 14,5 C 85 % 1021 hPa 0,0 l/m N 0,0 km/h (0 Bft)
16.06.2005 00:00 14,0 C 89 % 1022 hPa 0,0 l/m N 0,0 km/h (0 Bft)
16.06.2005 01:00 14,0 C 92 % 1022 hPa 0,0 l/m N 0,0 km/h (0 Bft)
16.06.2005 02:00 13,7 C 93 % 1022 hPa 0,0 l/m N 0,0 km/h (0 Bft)
16.06.2005 03:00 13,0 C 94 % 1022 hPa 0,0 l/m N 0,0 km/h (0 Bft)
16.06.2005 04:00 12,7 C 95 % 1022 hPa 0,0 l/m N 0,0 km/h (0 Bft)
16.06.2005 05:00 12,5 C 96 % 1022 hPa 0,0 l/m N 0,0 km/h (0 Bft)
16.06.2005 06:00 12,3 C 97 % 1023 hPa 0,0 l/m N 0,0 km/h (0 Bft)
16.06.2005 07:00 13,0 C 98 % 1023 hPa 0,0 l/m N 0,0 km/h (0 Bft)
16.06.2005 08:00 14,8 C 96 % 1024 hPa 0,0 l/m S-SW 5,1 km/h (1 Bft)
16.06.2005 09:00 17,7 C 82 % 1024 hPa 0,0 l/m O-NO 4,1 km/h (1 Bft)
16.06.2005 10:00 20,7 C 63 % 1024 hPa 0,0 l/m NO 8,0 km/h (2 Bft)
16.06.2005 11:00 22,6 C 55 % 1024 hPa 0,0 l/m O 8,3 km/h (2 Bft)
16.06.2005 12:00 23,8 C 47 % 1024 hPa 0,0 l/m O-SO 7,3 km/h (2 Bft)
16.06.2005 13:00 22,6 C 51 % 1024 hPa 0,0 l/m W-SW 6,2 km/h (2 Bft)
16.06.2005 14:00 22,7 C 49 % 1024 hPa 0,0 l/m S-SW 4,4 km/h (1 Bft)
16.06.2005 15:00 24,3 C 44 % 1024 hPa 0,0 l/m S 6,7 km/h (2 Bft)
16.06.2005 16:00 25,0 C 41 % 1024 hPa 0,0 l/m W 8,0 km/h (2 Bft)
16.06.2005 17:00 23,2 C 50 % 1024 hPa 0,0 l/m N-NW 14,0 km/h (3 Bft)
16.06.2005 18:00 23,5 C 48 % 1025 hPa 0,0 l/m N 11,1 km/h (2 Bft)
16.06.2005 19:00 22,9 C 49 % 1025 hPa 0,0 l/m N-NW 10,3 km/h (2 Bft)
16.06.2005 20:00 21,0 C 57 % 1026 hPa 0,0 l/m N-NW 3,1 km/h (1 Bft)
16.06.2005 21:00 18,9 C 68 % 1026 hPa 0,0 l/m W 1,8 km/h (1 Bft)
16.06.2005 22:00 17,0 C 77 % 1026 hPa 0,0 l/m W 0,9 km/h (0 Bft)
16.06.2005 23:00 15,9 C 83 % 1027 hPa 0,0 l/m NW 1,5 km/h (1 Bft)
17.06.2005 00:00 15,2 C 87 % 1027 hPa 0,0 l/m W-NW 0,0 km/h (0 Bft)
17.06.2005 01:00 15,1 C 88 % 1027 hPa 0,0 l/m N 0,0 km/h (0 Bft)
17.06.2005 02:00 15,0 C 90 % 1027 hPa 0,0 l/m N 0,0 km/h (0 Bft)
17.06.2005 03:00 14,7 C 92 % 1027 hPa 0,0 l/m N 0,0 km/h (0 Bft)
17.06.2005 04:00 14,4 C 93 % 1027 hPa 0,0 l/m N 0,0 km/h (0 Bft)
17.06.2005 05:00 14,1 C 94 % 1027 hPa 0,0 l/m N 0,0 km/h (0 Bft)
17.06.2005 06:00 14,1 C 94 % 1028 hPa 0,0 l/m N 0,0 km/h (0 Bft)
17.06.2005 07:00 15,2 C 95 % 1028 hPa 0,0 l/m N 0,0 km/h (0 Bft)
17.06.2005 08:00 16,1 C 92 % 1028 hPa 0,0 l/m N 0,0 km/h (0 Bft)
17.06.2005 09:00 17,9 C 81 % 1029 hPa 0,0 l/m S-SW 2,9 km/h (1 Bft)
17.06.2005 10:00 20,2 C 63 % 1029 hPa 0,0 l/m W 3,4 km/h (1 Bft)
17.06.2005 11:00 21,4 C 54 % 1029 hPa 0,0 l/m W-SW 7,2 km/h (2 Bft)
17.06.2005 12:00 22,0 C 53 % 1029 hPa 0,0 l/m W 6,9 km/h (2 Bft)
17.06.2005 13:00 22,5 C 50 % 1028 hPa 0,0 l/m W 8,6 km/h (2 Bft)
17.06.2005 14:00 22,9 C 50 % 1028 hPa 0,0 l/m W 9,4 km/h (2 Bft)
17.06.2005 15:00 22,5 C 53 % 1028 hPa 0,0 l/m NW 7,5 km/h (2 Bft)
17.06.2005 16:00 23,0 C 52 % 1028 hPa 0,0 l/m NW 5,5 km/h (1 Bft)
17.06.2005 17:00 23,5 C 51 % 1027 hPa 0,0 l/m N-NW 7,6 km/h (2 Bft)
17.06.2005 18:00 23,1 C 52 % 1027 hPa 0,0 l/m W 4,6 km/h (1 Bft)
17.06.2005 19:00 22,8 C 53 % 1027 hPa 0,0 l/m NW 0,6 km/h (0 Bft)
17.06.2005 20:00 22,0 C 63 % 1027 hPa 0,0 l/m N 0,0 km/h (0 Bft)
17.06.2005 21:00 20,6 C 71 % 1027 hPa 0,0 l/m N 0,0 km/h (0 Bft)
17.06.2005 22:00 19,6 C 73 % 1027 hPa 0,0 l/m N 0,0 km/h (0 Bft)
17.06.2005 23:00 19,1 C 77 % 1027 hPa 0,0 l/m N 0,0 km/h (0 Bft)
18.06.2005 00:00 18,9 C 80 % 1027 hPa 0,0 l/m NW 2,1 km/h (1 Bft)
18.06.2005 01:00 18,7 C 82 % 1027 hPa 0,0 l/m N 0,0 km/h (0 Bft)
18.06.2005 02:00 18,5 C 83 % 1027 hPa 0,0 l/m N 0,0 km/h (0 Bft)
18.06.2005 03:00 18,2 C 83 % 1026 hPa 0,0 l/m N-NW 2,0 km/h (1 Bft)
18.06.2005 04:00 17,9 C 85 % 1026 hPa 0,0 l/m N-NW 2,6 km/h (1 Bft)
18.06.2005 05:00 17,5 C 88 % 1026 hPa 0,0 l/m N 7,2 km/h (2 Bft)
18.06.2005 06:00 17,5 C 89 % 1026 hPa 0,0 l/m N 6,7 km/h (2 Bft)
18.06.2005 07:00 17,7 C 88 % 1026 hPa 0,0 l/m N 9,3 km/h (2 Bft)
18.06.2005 08:00 18,7 C 80 % 1026 hPa 0,0 l/m N-NO 11,1 km/h (2 Bft)
18.06.2005 09:00 20,4 C 71 % 1026 hPa 0,0 l/m N 12,1 km/h (2 Bft)
18.06.2005 10:00 20,9 C 67 % 1026 hPa 0,0 l/m N-NO 10,4 km/h (2 Bft)
18.06.2005 11:00 21,9 C 62 % 1026 hPa 0,0 l/m NO 7,9 km/h (2 Bft)
18.06.2005 12:00 22,4 C 60 % 1026 hPa 0,0 l/m N 9,4 km/h (2 Bft)
18.06.2005 13:00 22,3 C 61 % 1026 hPa 0,0 l/m N-NO 5,4 km/h (1 Bft)
18.06.2005 14:00 22,3 C 61 % 1025 hPa 0,0 l/m N-NO 7,3 km/h (2 Bft)
18.06.2005 15:00 23,5 C 54 % 1024 hPa 0,0 l/m N-NW 6,5 km/h (2 Bft)
18.06.2005 16:00 24,0 C 52 % 1024 hPa 0,0 l/m N 5,2 km/h (1 Bft)
18.06.2005 17:00 25,0 C 48 % 1024 hPa 0,0 l/m N-NO 9,2 km/h (2 Bft)
18.06.2005 18:00 25,3 C 46 % 1023 hPa 0,0 l/m N-NO 13,2 km/h (3 Bft)
18.06.2005 19:00 24,4 C 46 % 1023 hPa 0,0 l/m NO 13,4 km/h (3 Bft)
18.06.2005 20:00 22,7 C 51 % 1023 hPa 0,0 l/m N-NO 6,9 km/h (2 Bft)
18.06.2005 21:00 20,0 C 63 % 1023 hPa 0,0 l/m N 0,0 km/h (0 Bft)
18.06.2005 22:00 18,1 C 70 % 1023 hPa 0,0 l/m N 0,0 km/h (0 Bft)
18.06.2005 23:00 16,7 C 76 % 1023 hPa 0,0 l/m N-NW 3,8 km/h (1 Bft)
19.06.2005 00:00 15,8 C 78 % 1023 hPa 0,0 l/m N 6,6 km/h (2 Bft)
19.06.2005 01:00 15,0 C 76 % 1023 hPa 0,0 l/m W-NW 6,1 km/h (2 Bft)
19.06.2005 02:00 14,1 C 76 % 1022 hPa 0,0 l/m NW 2,8 km/h (1 Bft)
19.06.2005 03:00 13,4 C 73 % 1022 hPa 0,0 l/m NW 9,8 km/h (2 Bft)
19.06.2005 04:00 12,8 C 69 % 1022 hPa 0,0 l/m NW 8,4 km/h (2 Bft)
19.06.2005 05:00 12,2 C 71 % 1022 hPa 0,0 l/m NW 9,0 km/h (2 Bft)
19.06.2005 06:00 12,0 C 72 % 1022 hPa 0,0 l/m NW 6,3 km/h (2 Bft)
19.06.2005 07:00 13,3 C 67 % 1022 hPa 0,0 l/m N-NO 7,6 km/h (2 Bft)
19.06.2005 08:00 15,4 C 59 % 1022 hPa 0,0 l/m NO 11,7 km/h (2 Bft)
19.06.2005 09:00 18,2 C 52 % 1022 hPa 0,0 l/m N 12,8 km/h (3 Bft)
19.06.2005 10:00 21,4 C 41 % 1021 hPa 0,0 l/m N-NO 17,0 km/h (3 Bft)
19.06.2005 11:00 23,4 C 40 % 1021 hPa 0,0 l/m N-NO 16,0 km/h (3 Bft)
19.06.2005 12:00 24,4 C 36 % 1021 hPa 0,0 l/m N-NO 19,8 km/h (4 Bft)
19.06.2005 13:00 25,3 C 34 % 1021 hPa 0,0 l/m N-NO 19,2 km/h (3 Bft)
19.06.2005 14:00 26,1 C 32 % 1020 hPa 0,0 l/m NO 19,3 km/h (3 Bft)
19.06.2005 15:00 26,7 C 30 % 1020 hPa 0,0 l/m NO 20,7 km/h (4 Bft)
19.06.2005 16:00 27,2 C 26 % 1020 hPa 0,0 l/m N-NO 18,7 km/h (3 Bft)
19.06.2005 17:00 27,4 C 27 % 1019 hPa 0,0 l/m N 19,6 km/h (3 Bft)
19.06.2005 18:00 27,0 C 27 % 1019 hPa 0,0 l/m N-NO 17,7 km/h (3 Bft)
19.06.2005 19:00 25,6 C 30 % 1019 hPa 0,0 l/m N 14,2 km/h (3 Bft)
19.06.2005 20:00 23,4 C 35 % 1019 hPa 0,0 l/m N-NO 9,0 km/h (2 Bft)
19.06.2005 21:00 21,1 C 42 % 1019 hPa 0,0 l/m O-NO 2,4 km/h (1 Bft)
19.06.2005 22:00 18,3 C 51 % 1020 hPa 0,0 l/m N 0,0 km/h (0 Bft)
19.06.2005 23:00 16,5 C 58 % 1019 hPa 0,0 l/m N 0,0 km/h (0 Bft)
Min-Datum _ 13.06.05 19.06.05 13.06.05 - - 13.06.05
_ Min-Zeit 02:57 16:06 01:14 - - 00:00
Minimum _ 11,6 C 25 % 1008 hPa - - 0,0 km/h (0 Bft)
Max-Datum _ 19.06.05 15.06.05 17.06.05 14.06.05 - 13.06.05
_ Max-Zeit 16:49 00:15 09:30 19:07 - 12:51
Maximum _ 27,5 C 100 % 1029 hPa 21,0 l/m - 56,4 km/h
W-SW (7 Bft)
Durchschnitt _ 18,3 C 71 % 1020 hPa #50,0 l/m N 6,5 km/h (2 Bft)

Durchschnitt Minimum Temp.17,8 C
Durchschnitt Maximum Temp.18,8 C